sensor_id;sensor_type;location;lat;lon;timestamp;pressure;altitude;pressure_sealevel;temperature;humidity
19096;BME280;9680;52.520;13.332;2022-10-16T00:01:41;100854.22;;;16.06;86.97
19096;BME280;9680;52.520;13.332;2022-10-16T00:04:08;100856.47;;;16.12;86.91
19096;BME280;9680;52.520;13.332;2022-10-16T00:06:34;100859.84;;;16.14;86.73
19096;BME280;9680;52.520;13.332;2022-10-16T00:08:59;100858.81;;;16.17;86.51
19096;BME280;9680;52.520;13.332;2022-10-16T00:11:34;100863.22;;;16.16;86.49
19096;BME280;9680;52.520;13.332;2022-10-16T00:14:04;100860.59;;;16.16;86.50
19096;BME280;9680;52.520;13.332;2022-10-16T00:16:30;100866.59;;;16.19;86.15
19096;BME280;9680;52.520;13.332;2022-10-16T00:18:56;100861.16;;;16.22;86.60
19096;BME280;9680;52.520;13.332;2022-10-16T00:21:24;100863.69;;;16.23;85.93
19096;BME280;9680;52.520;13.332;2022-10-16T00:23:51;100866.44;;;16.22;86.10
19096;BME280;9680;52.520;13.332;2022-10-16T00:26:17;100868.31;;;16.20;85.94
19096;BME280;9680;52.520;13.332;2022-10-16T00:28:46;100877.19;;;16.17;86.23
19096;BME280;9680;52.520;13.332;2022-10-16T00:31:12;100876.44;;;16.15;86.34
19096;BME280;9680;52.520;13.332;2022-10-16T00:33:39;100879.94;;;16.15;86.45
19096;BME280;9680;52.520;13.332;2022-10-16T00:36:06;100891.28;;;16.16;86.24
19096;BME280;9680;52.520;13.332;2022-10-16T00:38:33;100894.84;;;16.15;86.31
19096;BME280;9680;52.520;13.332;2022-10-16T00:40:59;100897.47;;;16.15;86.76
19096;BME280;9680;52.520;13.332;2022-10-16T00:43:47;100885.38;;;16.12;86.35
19096;BME280;9680;52.520;13.332;2022-10-16T00:46:19;100886.97;;;16.15;86.62
19096;BME280;9680;52.520;13.332;2022-10-16T00:48:50;100874.56;;;16.17;86.56
19096;BME280;9680;52.520;13.332;2022-10-16T00:51:19;100877.00;;;16.20;86.74
19096;BME280;9680;52.520;13.332;2022-10-16T00:53:48;100879.66;;;16.20;86.27
19096;BME280;9680;52.520;13.332;2022-10-16T00:56:13;100885.00;;;16.19;86.49
19096;BME280;9680;52.520;13.332;2022-10-16T00:58:39;100896.47;;;16.18;86.50
19096;BME280;9680;52.520;13.332;2022-10-16T01:01:05;100893.81;;;16.18;86.47
19096;BME280;9680;52.520;13.332;2022-10-16T01:03:35;100901.59;;;16.19;86.82
19096;BME280;9680;52.520;13.332;2022-10-16T01:08:49;100898.34;;;16.15;86.74
19096;BME280;9680;52.520;13.332;2022-10-16T01:11:24;100896.47;;;16.18;86.81
19096;BME280;9680;52.520;13.332;2022-10-16T01:13:55;100894.59;;;16.20;86.67
19096;BME280;9680;52.520;13.332;2022-10-16T01:16:44;100898.97;;;16.19;86.54
19096;BME280;9680;52.520;13.332;2022-10-16T01:19:41;100901.59;;;16.19;86.33
19096;BME280;9680;52.520;13.332;2022-10-16T01:22:05;100905.16;;;16.18;86.77
19096;BME280;9680;52.520;13.332;2022-10-16T01:24:40;100904.22;;;16.19;86.85
19096;BME280;9680;52.520;13.332;2022-10-16T01:27:15;100909.41;;;16.21;86.71
19096;BME280;9680;52.520;13.332;2022-10-16T01:30:18;100911.19;;;16.20;86.68
19096;BME280;9680;52.520;13.332;2022-10-16T01:32:51;100918.13;;;16.21;86.42
19096;BME280;9680;52.520;13.332;2022-10-16T01:35:22;100914.75;;;16.19;86.70
19096;BME280;9680;52.520;13.332;2022-10-16T01:37:55;100919.06;;;16.20;86.61
19096;BME280;9680;52.520;13.332;2022-10-16T01:40:25;100920.88;;;16.20;86.81
19096;BME280;9680;52.520;13.332;2022-10-16T01:43:12;100917.56;;;16.16;86.59
19096;BME280;9680;52.520;13.332;2022-10-16T01:45:40;100922.81;;;16.16;86.58
19096;BME280;9680;52.520;13.332;2022-10-16T01:48:07;100925.44;;;16.16;86.60
19096;BME280;9680;52.520;13.332;2022-10-16T01:50:37;100922.81;;;16.16;86.82
19096;BME280;9680;52.520;13.332;2022-10-16T01:53:05;100919.53;;;16.12;86.86
19096;BME280;9680;52.520;13.332;2022-10-16T01:55:35;100916.22;;;16.09;87.21
19096;BME280;9680;52.520;13.332;2022-10-16T01:58:05;100930.22;;;16.09;87.18
19096;BME280;9680;52.520;13.332;2022-10-16T02:00:32;100919.78;;;16.08;87.48
19096;BME280;9680;52.520;13.332;2022-10-16T02:03:01;100929.19;;;16.12;87.44
19096;BME280;9680;52.520;13.332;2022-10-16T02:05:50;100933.44;;;16.14;87.23
19096;BME280;9680;52.520;13.332;2022-10-16T02:08:17;100935.94;;;16.16;87.17
19096;BME280;9680;52.520;13.332;2022-10-16T02:10:43;100935.94;;;16.16;86.86
19096;BME280;9680;52.520;13.332;2022-10-16T02:13:22;100945.72;;;16.14;87.05
19096;BME280;9680;52.520;13.332;2022-10-16T02:15:49;100941.22;;;16.16;87.11
19096;BME280;9680;52.520;13.332;2022-10-16T02:18:15;100955.28;;;16.15;87.32
19096;BME280;9680;52.520;13.332;2022-10-16T02:20:55;100972.09;;;16.12;87.57
19096;BME280;9680;52.520;13.332;2022-10-16T02:26:09;100960.63;;;16.13;87.42
19096;BME280;9680;52.520;13.332;2022-10-16T02:28:41;100951.91;;;16.13;87.31
19096;BME280;9680;52.520;13.332;2022-10-16T02:31:11;100954.53;;;16.13;87.26
19096;BME280;9680;52.520;13.332;2022-10-16T02:33:40;100954.34;;;16.16;87.43
19096;BME280;9680;52.520;13.332;2022-10-16T02:36:07;100951.72;;;16.16;87.32
19096;BME280;9680;52.520;13.332;2022-10-16T02:38:34;100959.59;;;16.16;87.12
19096;BME280;9680;52.520;13.332;2022-10-16T02:40:59;100972.00;;;16.14;87.31
19096;BME280;9680;52.520;13.332;2022-10-16T02:43:25;100969.34;;;16.14;87.14
19096;BME280;9680;52.520;13.332;2022-10-16T02:45:51;100965.97;;;16.12;87.04
19096;BME280;9680;52.520;13.332;2022-10-16T02:48:17;100965.31;;;16.08;87.18
19096;BME280;9680;52.520;13.332;2022-10-16T02:50:42;100974.13;;;16.07;87.32
19096;BME280;9680;52.520;13.332;2022-10-16T02:53:08;100971.59;;;16.06;87.65
19096;BME280;9680;52.520;13.332;2022-10-16T02:55:33;100969.25;;;16.01;87.72
19096;BME280;9680;52.520;13.332;2022-10-16T02:57:59;100968.56;;;15.97;87.57
19096;BME280;9680;52.520;13.332;2022-10-16T03:00:25;100969.59;;;15.95;87.65
19096;BME280;9680;52.520;13.332;2022-10-16T03:02:51;100967.03;;;15.93;87.80
19096;BME280;9680;52.520;13.332;2022-10-16T03:05:16;100966.28;;;15.91;87.93
19096;BME280;9680;52.520;13.332;2022-10-16T03:07:42;100968.22;;;15.87;87.89
19096;BME280;9680;52.520;13.332;2022-10-16T03:10:08;100975.31;;;15.85;88.07
19096;BME280;9680;52.520;13.332;2022-10-16T03:12:33;100973.72;;;15.83;88.09
19096;BME280;9680;52.520;13.332;2022-10-16T03:14:59;100979.22;;;15.78;88.45
19096;BME280;9680;52.520;13.332;2022-10-16T03:17:25;100977.63;;;15.76;88.51
19096;BME280;9680;52.520;13.332;2022-10-16T03:19:50;100979.56;;;15.72;88.58
19096;BME280;9680;52.520;13.332;2022-10-16T03:22:16;100989.41;;;15.68;88.85
19096;BME280;9680;52.520;13.332;2022-10-16T03:24:41;100986.97;;;15.65;89.08
19096;BME280;9680;52.520;13.332;2022-10-16T03:27:08;100988.88;;;15.62;89.41
19096;BME280;9680;52.520;13.332;2022-10-16T03:29:33;100990.84;;;15.58;89.09
19096;BME280;9680;52.520;13.332;2022-10-16T03:31:59;100997.94;;;15.56;89.65
19096;BME280;9680;52.520;13.332;2022-10-16T03:34:25;101003.34;;;15.53;89.80
19096;BME280;9680;52.520;13.332;2022-10-16T03:36:51;101001.66;;;15.52;90.09
19096;BME280;9680;52.520;13.332;2022-10-16T03:39:17;101006.16;;;15.50;89.97
19096;BME280;9680;52.520;13.332;2022-10-16T03:41:42;101017.59;;;15.49;90.19
19096;BME280;9680;52.520;13.332;2022-10-16T03:44:08;101009.72;;;15.49;90.46
19096;BME280;9680;52.520;13.332;2022-10-16T03:46:33;101016.66;;;15.50;90.24
19096;BME280;9680;52.520;13.332;2022-10-16T03:48:58;101025.28;;;15.52;90.64
19096;BME280;9680;52.520;13.332;2022-10-16T03:51:24;101027.00;;;15.53;90.61
19096;BME280;9680;52.520;13.332;2022-10-16T03:53:49;101030.38;;;15.55;90.36
19096;BME280;9680;52.520;13.332;2022-10-16T03:56:15;101034.56;;;15.59;90.81
19096;BME280;9680;52.520;13.332;2022-10-16T03:58:41;101036.16;;;15.62;90.46
19096;BME280;9680;52.520;13.332;2022-10-16T04:01:06;101039.66;;;15.62;90.43
19096;BME280;9680;52.520;13.332;2022-10-16T04:03:32;101023.03;;;15.62;90.17
19096;BME280;9680;52.520;13.332;2022-10-16T04:05:57;101037.03;;;15.62;90.18
19096;BME280;9680;52.520;13.332;2022-10-16T04:08:23;101041.50;;;15.60;90.13
19096;BME280;9680;52.520;13.332;2022-10-16T04:10:49;101049.38;;;15.60;90.41
19096;BME280;9680;52.520;13.332;2022-10-16T04:13:14;101053.88;;;15.58;90.46
19096;BME280;9680;52.520;13.332;2022-10-16T04:15:40;101047.81;;;15.56;90.52
19096;BME280;9680;52.520;13.332;2022-10-16T04:18:06;101046.13;;;15.55;90.45
19096;BME280;9680;52.520;13.332;2022-10-16T04:20:32;101057.66;;;15.52;90.47
19096;BME280;9680;52.520;13.332;2022-10-16T04:22:58;101050.88;;;15.48;90.35
19096;BME280;9680;52.520;13.332;2022-10-16T04:25:23;101045.69;;;15.47;90.72
19096;BME280;9680;52.520;13.332;2022-10-16T04:27:49;101051.72;;;15.49;90.92
19096;BME280;9680;52.520;13.332;2022-10-16T04:30:14;101038.53;;;15.50;90.96
19096;BME280;9680;52.520;13.332;2022-10-16T04:32:40;101030.66;;;15.50;90.76
19096;BME280;9680;52.520;13.332;2022-10-16T04:35:06;101029.94;;;15.47;90.68
19096;BME280;9680;52.520;13.332;2022-10-16T04:37:32;101031.03;;;15.42;90.51
19096;BME280;9680;52.520;13.332;2022-10-16T04:39:57;101037.31;;;15.40;90.87
19096;BME280;9680;52.520;13.332;2022-10-16T04:42:23;101031.47;;;15.35;90.72
19096;BME280;9680;52.520;13.332;2022-10-16T04:44:48;101027.22;;;15.32;91.02
19096;BME280;9680;52.520;13.332;2022-10-16T04:47:14;101022.91;;;15.31;91.38
19096;BME280;9680;52.520;13.332;2022-10-16T04:49:40;101023.00;;;15.29;91.34
19096;BME280;9680;52.520;13.332;2022-10-16T04:52:05;101024.88;;;15.27;91.11
19096;BME280;9680;52.520;13.332;2022-10-16T04:54:31;101021.47;;;15.25;91.26
19096;BME280;9680;52.520;13.332;2022-10-16T04:56:56;101023.41;;;15.22;91.33
19096;BME280;9680;52.520;13.332;2022-10-16T04:59:23;101030.56;;;15.18;91.25
19096;BME280;9680;52.520;13.332;2022-10-16T05:01:48;101035.91;;;15.17;91.65
19096;BME280;9680;52.520;13.332;2022-10-16T05:04:14;101043.03;;;15.14;91.85
19096;BME280;9680;52.520;13.332;2022-10-16T05:06:40;101055.38;;;15.12;92.16
19096;BME280;9680;52.520;13.332;2022-10-16T05:09:07;101057.22;;;15.10;92.15
19096;BME280;9680;52.520;13.332;2022-10-16T05:11:33;101073.81;;;15.11;92.17
19096;BME280;9680;52.520;13.332;2022-10-16T05:13:59;101068.56;;;15.11;92.54
19096;BME280;9680;52.520;13.332;2022-10-16T05:16:25;101070.19;;;15.13;92.79
19096;BME280;9680;52.520;13.332;2022-10-16T05:18:51;101069.94;;;15.18;92.58
19096;BME280;9680;52.520;13.332;2022-10-16T05:21:17;101065.38;;;15.22;92.19
19096;BME280;9680;52.520;13.332;2022-10-16T05:23:43;101064.41;;;15.24;92.31
19096;BME280;9680;52.520;13.332;2022-10-16T05:26:08;101062.44;;;15.28;92.28
19096;BME280;9680;52.520;13.332;2022-10-16T05:28:34;101060.50;;;15.32;92.13
19096;BME280;9680;52.520;13.332;2022-10-16T05:31:04;101057.03;;;15.31;91.64
19096;BME280;9680;52.520;13.332;2022-10-16T05:33:30;101059.66;;;15.31;91.48
19096;BME280;9680;52.520;13.332;2022-10-16T05:35:56;101063.03;;;15.33;91.86
19096;BME280;9680;52.520;13.332;2022-10-16T05:38:21;101067.19;;;15.37;91.78
19096;BME280;9680;52.520;13.332;2022-10-16T05:40:51;101075.59;;;15.44;91.65
19096;BME280;9680;52.520;13.332;2022-10-16T05:43:17;101080.53;;;15.50;91.20
19096;BME280;9680;52.520;13.332;2022-10-16T05:45:43;101089.16;;;15.52;91.22
19096;BME280;9680;52.520;13.332;2022-10-16T05:48:09;101086.28;;;15.57;91.17
19096;BME280;9680;52.520;13.332;2022-10-16T05:50:34;101083.41;;;15.62;90.58
19096;BME280;9680;52.520;13.332;2022-10-16T05:53:00;101080.72;;;15.63;90.19
19096;BME280;9680;52.520;13.332;2022-10-16T05:55:25;101079.03;;;15.62;90.03
19096;BME280;9680;52.520;13.332;2022-10-16T05:57:54;101072.16;;;15.60;90.17
19096;BME280;9680;52.520;13.332;2022-10-16T06:00:19;101080.88;;;15.60;90.16
19096;BME280;9680;52.520;13.332;2022-10-16T06:02:45;101076.47;;;15.61;90.16
19096;BME280;9680;52.520;13.332;2022-10-16T06:05:11;101081.66;;;15.62;90.24
19096;BME280;9680;52.520;13.332;2022-10-16T06:07:36;101077.94;;;15.66;90.02
19096;BME280;9680;52.520;13.332;2022-10-16T06:10:02;101093.25;;;15.74;90.09
19096;BME280;9680;52.520;13.332;2022-10-16T06:12:29;101093.09;;;15.77;89.91
19096;BME280;9680;52.520;13.332;2022-10-16T06:14:54;101092.75;;;15.83;89.50
19096;BME280;9680;52.520;13.332;2022-10-16T06:17:20;101095.94;;;15.90;89.18
19096;BME280;9680;52.520;13.332;2022-10-16T06:19:45;101100.19;;;15.93;89.07
19096;BME280;9680;52.520;13.332;2022-10-16T06:22:11;101100.69;;;15.99;88.87
19096;BME280;9680;52.520;13.332;2022-10-16T06:24:37;101096.78;;;16.07;88.44
19096;BME280;9680;52.520;13.332;2022-10-16T06:27:03;101099.16;;;16.11;88.30
19096;BME280;9680;52.520;13.332;2022-10-16T06:29:29;101108.75;;;16.12;87.75
19096;BME280;9680;52.520;13.332;2022-10-16T06:31:54;101113.88;;;16.14;87.84
19096;BME280;9680;52.520;13.332;2022-10-16T06:34:20;101115.41;;;16.18;87.56
19096;BME280;9680;52.520;13.332;2022-10-16T06:36:46;101116.88;;;16.24;87.57
19096;BME280;9680;52.520;13.332;2022-10-16T06:39:11;101121.94;;;16.27;87.03
19096;BME280;9680;52.520;13.332;2022-10-16T06:41:40;101128.84;;;16.29;87.06
19096;BME280;9680;52.520;13.332;2022-10-16T06:44:14;101135.78;;;16.30;86.83
19096;BME280;9680;52.520;13.332;2022-10-16T06:46:40;101134.50;;;16.38;86.95
19096;BME280;9680;52.520;13.332;2022-10-16T06:49:05;101142.03;;;16.44;86.81
19096;BME280;9680;52.520;13.332;2022-10-16T06:51:31;101133.63;;;16.53;86.62
19096;BME280;9680;52.520;13.332;2022-10-16T06:53:59;101137.78;;;16.57;85.87
19096;BME280;9680;52.520;13.332;2022-10-16T06:56:26;101139.66;;;16.55;85.59
19096;BME280;9680;52.520;13.332;2022-10-16T06:58:53;101137.09;;;16.54;85.53
19096;BME280;9680;52.520;13.332;2022-10-16T07:01:21;101147.69;;;16.68;85.78
19096;BME280;9680;52.520;13.332;2022-10-16T07:03:47;101156.28;;;16.86;85.56
19096;BME280;9680;52.520;13.332;2022-10-16T07:06:15;101151.88;;;17.03;84.67
19096;BME280;9680;52.520;13.332;2022-10-16T07:08:43;101154.34;;;17.21;84.11
19096;BME280;9680;52.520;13.332;2022-10-16T07:11:13;101165.66;;;17.37;83.43
19096;BME280;9680;52.520;13.332;2022-10-16T07:13:41;101165.66;;;17.52;82.58
19096;BME280;9680;52.520;13.332;2022-10-16T07:16:10;101168.59;;;17.61;82.07
19096;BME280;9680;52.520;13.332;2022-10-16T07:18:36;101170.09;;;17.66;81.63
19096;BME280;9680;52.520;13.332;2022-10-16T07:21:09;101161.38;;;17.65;81.14
19096;BME280;9680;52.520;13.332;2022-10-16T07:23:35;101164.94;;;17.64;80.94
19096;BME280;9680;52.520;13.332;2022-10-16T07:26:02;101164.00;;;17.65;80.88
19096;BME280;9680;52.520;13.332;2022-10-16T07:28:28;101165.19;;;17.74;80.95
19096;BME280;9680;52.520;13.332;2022-10-16T07:30:54;101154.38;;;17.79;80.46
19096;BME280;9680;52.520;13.332;2022-10-16T07:33:20;101162.28;;;17.79;79.81
19096;BME280;9680;52.520;13.332;2022-10-16T07:35:53;101153.84;;;17.73;80.05
19096;BME280;9680;52.520;13.332;2022-10-16T07:38:20;101159.75;;;17.77;80.02
19096;BME280;9680;52.520;13.332;2022-10-16T07:40:45;101170.19;;;17.79;79.84
19096;BME280;9680;52.520;13.332;2022-10-16T07:43:12;101173.47;;;17.82;79.63
19096;BME280;9680;52.520;13.332;2022-10-16T07:45:45;101172.44;;;17.85;79.75
19096;BME280;9680;52.520;13.332;2022-10-16T07:48:11;101172.44;;;17.85;79.53
19096;BME280;9680;52.520;13.332;2022-10-16T07:50:36;101170.94;;;17.81;79.14
19096;BME280;9680;52.520;13.332;2022-10-16T07:53:03;101171.91;;;17.80;79.47
19096;BME280;9680;52.520;13.332;2022-10-16T07:55:28;101167.44;;;17.80;79.47
19096;BME280;9680;52.520;13.332;2022-10-16T07:57:54;101171.34;;;17.74;79.46
19096;BME280;9680;52.520;13.332;2022-10-16T08:00:20;101179.81;;;17.65;79.63
19096;BME280;9680;52.520;13.332;2022-10-16T08:02:45;101182.50;;;17.64;79.80
19096;BME280;9680;52.520;13.332;2022-10-16T08:05:11;101195.69;;;17.64;80.39
19096;BME280;9680;52.520;13.332;2022-10-16T08:07:36;101208.41;;;17.71;80.36
19096;BME280;9680;52.520;13.332;2022-10-16T08:10:14;101207.91;;;17.79;80.10
19096;BME280;9680;52.520;13.332;2022-10-16T08:12:41;101212.53;;;17.90;79.92
19096;BME280;9680;52.520;13.332;2022-10-16T08:15:07;101220.66;;;18.01;79.65
19096;BME280;9680;52.520;13.332;2022-10-16T08:17:32;101209.66;;;18.09;79.10
19096;BME280;9680;52.520;13.332;2022-10-16T08:19:58;101197.97;;;18.13;78.89
19096;BME280;9680;52.520;13.332;2022-10-16T08:22:23;101197.84;;;18.15;78.41
19096;BME280;9680;52.520;13.332;2022-10-16T08:24:49;101207.75;;;18.11;78.35
19096;BME280;9680;52.520;13.332;2022-10-16T08:27:15;101208.03;;;18.07;78.45
19096;BME280;9680;52.520;13.332;2022-10-16T08:29:40;101210.66;;;18.07;78.59
19096;BME280;9680;52.520;13.332;2022-10-16T08:32:05;101216.06;;;18.05;78.54
19096;BME280;9680;52.520;13.332;2022-10-16T08:34:31;101220.28;;;18.08;78.53
19096;BME280;9680;52.520;13.332;2022-10-16T08:36:57;101212.38;;;18.08;78.52
19096;BME280;9680;52.520;13.332;2022-10-16T08:39:22;101214.91;;;18.09;78.71
19096;BME280;9680;52.520;13.332;2022-10-16T08:42:11;101218.13;;;18.14;78.84
19096;BME280;9680;52.520;13.332;2022-10-16T08:47:48;101207.25;;;18.33;77.77
19096;BME280;9680;52.520;13.332;2022-10-16T09:19:38;101249.06;;;19.09;74.92
19096;BME280;9680;52.520;13.332;2022-10-16T09:22:15;101253.16;;;19.00;74.64
19096;BME280;9680;52.520;13.332;2022-10-16T09:24:41;101243.81;;;18.95;74.56
19096;BME280;9680;52.520;13.332;2022-10-16T09:27:11;101240.44;;;18.92;74.66
19096;BME280;9680;52.520;13.332;2022-10-16T09:29:37;101241.13;;;18.82;74.72
19096;BME280;9680;52.520;13.332;2022-10-16T09:32:11;101242.38;;;18.76;75.02
19096;BME280;9680;52.520;13.332;2022-10-16T09:34:41;101246.16;;;18.72;74.99
19096;BME280;9680;52.520;13.332;2022-10-16T09:37:13;101258.72;;;18.68;75.11
19096;BME280;9680;52.520;13.332;2022-10-16T09:39:51;101251.47;;;18.57;75.36
19096;BME280;9680;52.520;13.332;2022-10-16T09:42:23;101257.09;;;18.66;75.34
19096;BME280;9680;52.520;13.332;2022-10-16T09:44:53;101265.38;;;18.74;75.15
19096;BME280;9680;52.520;13.332;2022-10-16T09:47:27;101267.78;;;18.64;74.79
19096;BME280;9680;52.520;13.332;2022-10-16T09:52:21;101281.91;;;18.48;75.42
19096;BME280;9680;52.520;13.332;2022-10-16T09:57:22;101280.66;;;18.69;75.30
19096;BME280;9680;52.520;13.332;2022-10-16T09:59:52;101281.34;;;18.85;75.27
19096;BME280;9680;52.520;13.332;2022-10-16T10:02:20;101272.44;;;19.15;74.31
19096;BME280;9680;52.520;13.332;2022-10-16T10:04:54;101278.16;;;19.35;73.53
19096;BME280;9680;52.520;13.332;2022-10-16T10:07:25;101285.88;;;19.38;72.73
19096;BME280;9680;52.520;13.332;2022-10-16T10:09:52;101298.22;;;19.25;72.31
19096;BME280;9680;52.520;13.332;2022-10-16T10:12:23;101292.25;;;19.08;71.88
19096;BME280;9680;52.520;13.332;2022-10-16T10:14:52;101284.34;;;19.08;72.54
19096;BME280;9680;52.520;13.332;2022-10-16T10:17:27;101288.34;;;19.14;72.45
19096;BME280;9680;52.520;13.332;2022-10-16T10:22:49;101306.28;;;19.09;71.61
19096;BME280;9680;52.520;13.332;2022-10-16T10:28:31;101293.13;;;18.94;71.38
19096;BME280;9680;52.520;13.332;2022-10-16T10:31:23;101309.81;;;18.95;71.80
19096;BME280;9680;52.520;13.332;2022-10-16T10:36:42;101321.84;;;19.13;71.52
19096;BME280;9680;52.520;13.332;2022-10-16T10:39:40;101332.00;;;19.19;70.68
19096;BME280;9680;52.520;13.332;2022-10-16T10:50:02;101314.97;;;20.17;68.49
19096;BME280;9680;52.520;13.332;2022-10-16T10:52:41;101322.53;;;20.35;67.94
19096;BME280;9680;52.520;13.332;2022-10-16T10:58:23;101315.56;;;20.84;66.88
19096;BME280;9680;52.520;13.332;2022-10-16T11:07:05;101309.81;;;21.75;63.12
19096;BME280;9680;52.520;13.332;2022-10-16T11:09:39;101315.53;;;21.57;61.50
19096;BME280;9680;52.520;13.332;2022-10-16T11:12:36;101320.63;;;21.36;61.81
19096;BME280;9680;52.520;13.332;2022-10-16T11:15:12;101314.56;;;21.22;61.76
19096;BME280;9680;52.520;13.332;2022-10-16T11:17:52;101311.66;;;21.14;61.97
19096;BME280;9680;52.520;13.332;2022-10-16T11:20:25;101315.06;;;21.03;62.01
19096;BME280;9680;52.520;13.332;2022-10-16T11:25:32;101309.38;;;20.59;62.16
19096;BME280;9680;52.520;13.332;2022-10-16T11:41:18;101317.00;;;19.60;64.37
19096;BME280;9680;52.520;13.332;2022-10-16T11:45:13;101315.28;;;19.46;64.21
19096;BME280;9680;52.520;13.332;2022-10-16T11:47:19;101314.97;;;19.51;64.62
19096;BME280;9680;52.520;13.332;2022-10-16T11:49:58;101318.38;;;19.53;64.23
19096;BME280;9680;52.520;13.332;2022-10-16T11:52:36;101325.63;;;19.49;64.13
19096;BME280;9680;52.520;13.332;2022-10-16T11:55:14;101328.34;;;19.35;64.13
19096;BME280;9680;52.520;13.332;2022-10-16T11:57:46;101328.34;;;19.22;64.06
19096;BME280;9680;52.520;13.332;2022-10-16T12:00:40;101325.94;;;19.04;64.13
19096;BME280;9680;52.520;13.332;2022-10-16T12:06:27;101342.06;;;18.85;63.95
19096;BME280;9680;52.520;13.332;2022-10-16T12:08:59;101342.81;;;18.87;64.31
19096;BME280;9680;52.520;13.332;2022-10-16T12:11:33;101358.00;;;18.98;64.24
19096;BME280;9680;52.520;13.332;2022-10-16T12:16:56;101355.09;;;19.30;63.33
19096;BME280;9680;52.520;13.332;2022-10-16T12:19:24;101360.50;;;19.42;63.20
19096;BME280;9680;52.520;13.332;2022-10-16T12:25:39;101361.31;;;19.57;62.00
19096;BME280;9680;52.520;13.332;2022-10-16T12:30:41;101362.59;;;19.64;61.43
19096;BME280;9680;52.520;13.332;2022-10-16T12:33:25;101363.22;;;19.68;61.34
19096;BME280;9680;52.520;13.332;2022-10-16T12:35:51;101359.41;;;19.72;61.16
19096;BME280;9680;52.520;13.332;2022-10-16T12:40:47;101368.28;;;19.71;59.87
19096;BME280;9680;52.520;13.332;2022-10-16T12:45:46;101368.41;;;19.69;59.42
19096;BME280;9680;52.520;13.332;2022-10-16T12:48:22;101377.38;;;19.67;57.81
19096;BME280;9680;52.520;13.332;2022-10-16T12:50:48;101372.94;;;19.67;57.69
19096;BME280;9680;52.520;13.332;2022-10-16T12:53:22;101374.44;;;19.71;57.86
19096;BME280;9680;52.520;13.332;2022-10-16T12:55:57;101384.69;;;19.76;57.91
19096;BME280;9680;52.520;13.332;2022-10-16T13:01:19;101380.59;;;19.85;57.43
19096;BME280;9680;52.520;13.332;2022-10-16T13:04:03;101377.72;;;19.88;57.69
19096;BME280;9680;52.520;13.332;2022-10-16T13:06:56;101380.00;;;19.94;57.37
19096;BME280;9680;52.520;13.332;2022-10-16T13:25:58;101411.94;;;19.91;55.98
19096;BME280;9680;52.520;13.332;2022-10-16T13:28:45;101411.41;;;19.99;56.49
19096;BME280;9680;52.520;13.332;2022-10-16T13:31:20;101420.41;;;19.96;55.25
19096;BME280;9680;52.520;13.332;2022-10-16T13:33:49;101416.38;;;20.03;55.26
19096;BME280;9680;52.520;13.332;2022-10-16T13:36:35;101404.97;;;20.29;54.47
19096;BME280;9680;52.520;13.332;2022-10-16T13:39:10;101420.75;;;20.43;54.10
19096;BME280;9680;52.520;13.332;2022-10-16T13:41:37;101412.50;;;20.61;53.73
19096;BME280;9680;52.520;13.332;2022-10-16T13:44:03;101417.53;;;20.77;52.88
19096;BME280;9680;52.520;13.332;2022-10-16T13:46:30;101412.59;;;20.72;52.44
19096;BME280;9680;52.520;13.332;2022-10-16T13:49:05;101406.03;;;20.65;53.04
19096;BME280;9680;52.520;13.332;2022-10-16T13:51:32;101405.91;;;20.66;53.11
19096;BME280;9680;52.520;13.332;2022-10-16T13:53:58;101407.38;;;20.71;53.18
19096;BME280;9680;52.520;13.332;2022-10-16T13:56:28;101409.72;;;20.62;52.49
19096;BME280;9680;52.520;13.332;2022-10-16T13:59:23;101419.69;;;20.46;52.60
19096;BME280;9680;52.520;13.332;2022-10-16T14:01:49;101423.72;;;20.39;53.44
19096;BME280;9680;52.520;13.332;2022-10-16T14:04:16;101419.38;;;20.37;53.35
19096;BME280;9680;52.520;13.332;2022-10-16T14:06:44;101429.22;;;20.35;53.24
19096;BME280;9680;52.520;13.332;2022-10-16T14:11:56;101430.47;;;20.30;53.47
19096;BME280;9680;52.520;13.332;2022-10-16T14:14:23;101435.16;;;20.26;53.86
19096;BME280;9680;52.520;13.332;2022-10-16T14:16:49;101440.44;;;20.26;54.00
19096;BME280;9680;52.520;13.332;2022-10-16T14:19:27;101441.69;;;20.20;54.03
19096;BME280;9680;52.520;13.332;2022-10-16T14:21:53;101434.19;;;20.14;54.16
19096;BME280;9680;52.520;13.332;2022-10-16T14:24:31;101444.09;;;20.11;54.31
19096;BME280;9680;52.520;13.332;2022-10-16T14:26:57;101438.72;;;20.12;54.63
19096;BME280;9680;52.520;13.332;2022-10-16T14:29:24;101432.91;;;20.07;54.81
19096;BME280;9680;52.520;13.332;2022-10-16T14:32:20;101437.75;;;20.00;55.22
19096;BME280;9680;52.520;13.332;2022-10-16T14:34:53;101441.66;;;19.95;55.49
19096;BME280;9680;52.520;13.332;2022-10-16T14:37:28;101434.28;;;19.85;55.58
19096;BME280;9680;52.520;13.332;2022-10-16T14:39:55;101440.94;;;19.78;55.92
19096;BME280;9680;52.520;13.332;2022-10-16T14:42:23;101445.59;;;19.74;56.04
19096;BME280;9680;52.520;13.332;2022-10-16T14:44:51;101449.47;;;19.69;56.62
19096;BME280;9680;52.520;13.332;2022-10-16T14:47:22;101456.09;;;19.61;56.63
19096;BME280;9680;52.520;13.332;2022-10-16T14:49:52;101450.19;;;19.58;56.93
19096;BME280;9680;52.520;13.332;2022-10-16T14:52:20;101457.53;;;19.53;57.00
19096;BME280;9680;52.520;13.332;2022-10-16T14:54:48;101460.59;;;19.46;57.11
19096;BME280;9680;52.520;13.332;2022-10-16T14:57:19;101462.69;;;19.41;57.28
19096;BME280;9680;52.520;13.332;2022-10-16T14:59:46;101466.47;;;19.37;57.13
19096;BME280;9680;52.520;13.332;2022-10-16T15:02:33;101467.78;;;19.30;57.30
19096;BME280;9680;52.520;13.332;2022-10-16T15:05:13;101465.47;;;19.25;57.18
19096;BME280;9680;52.520;13.332;2022-10-16T15:07:39;101464.88;;;19.20;57.16